sensor_id;sensor_type;location;lat;lon;timestamp;noise_LAeq;noise_LA_min;noise_LA_max;noise_LA01;noise_LA95
45651;Laerm;31365;48.858;8.530;2023-06-14T00:01:08;38.41;30.89;42.09;;
45651;Laerm;31365;48.858;8.530;2023-06-14T00:03:37;37.93;29.92;43.44;;
45651;Laerm;31365;48.858;8.530;2023-06-14T00:06:06;37.61;28.67;42.03;;
45651;Laerm;31365;48.858;8.530;2023-06-14T00:08:35;49.19;29.92;67.31;;
45651;Laerm;31365;48.858;8.530;2023-06-14T00:11:03;37.83;29.92;41.75;;
45651;Laerm;31365;48.858;8.530;2023-06-14T00:13:33;48.10;28.67;66.03;;
45651;Laerm;31365;48.858;8.530;2023-06-14T00:16:05;38.42;30.89;42.65;;
45651;Laerm;31365;48.858;8.530;2023-06-14T00:18:36;38.11;30.89;42.35;;
45651;Laerm;31365;48.858;8.530;2023-06-14T00:21:06;37.81;29.92;42.88;;
45651;Laerm;31365;48.858;8.530;2023-06-14T00:23:34;39.15;30.89;42.03;;
45651;Laerm;31365;48.858;8.530;2023-06-14T00:26:02;38.13;29.92;41.75;;
45651;Laerm;31365;48.858;8.530;2023-06-14T00:28:32;37.72;30.89;43.09;;
45651;Laerm;31365;48.858;8.530;2023-06-14T00:31:01;37.74;30.54;43.19;;
45651;Laerm;31365;48.858;8.530;2023-06-14T00:33:31;38.39;29.92;42.09;;
45651;Laerm;31365;48.858;8.530;2023-06-14T00:35:59;37.42;26.91;41.96;;
45651;Laerm;31365;48.858;8.530;2023-06-14T00:38:27;48.91;30.89;71.49;;
45651;Laerm;31365;48.858;8.530;2023-06-14T00:40:59;47.51;30.89;66.61;;
45651;Laerm;31365;48.858;8.530;2023-06-14T00:43:28;37.91;28.67;41.68;;
45651;Laerm;31365;48.858;8.530;2023-06-14T00:45:56;54.19;32.35;71.31;;
45651;Laerm;31365;48.858;8.530;2023-06-14T00:48:26;37.59;29.92;46.43;;
45651;Laerm;31365;48.858;8.530;2023-06-14T00:50:59;38.58;28.67;42.35;;
45651;Laerm;31365;48.858;8.530;2023-06-14T00:53:34;38.30;30.89;43.58;;
45651;Laerm;31365;48.858;8.530;2023-06-14T00:56:03;41.13;32.35;44.51;;
45651;Laerm;31365;48.858;8.530;2023-06-14T00:58:32;41.13;32.35;44.51;;
45651;Laerm;31365;48.858;8.530;2023-06-14T01:01:02;37.54;26.91;44.58;;
45651;Laerm;31365;48.858;8.530;2023-06-14T01:03:33;49.94;28.67;69.39;;
45651;Laerm;31365;48.858;8.530;2023-06-14T01:06:15;37.23;26.91;46.40;;
45651;Laerm;31365;48.858;8.530;2023-06-14T01:09:05;37.47;29.92;42.93;;
45651;Laerm;31365;48.858;8.530;2023-06-14T01:11:48;37.63;29.92;41.41;;
45651;Laerm;31365;48.858;8.530;2023-06-14T01:14:20;37.68;28.67;42.59;;
45651;Laerm;31365;48.858;8.530;2023-06-14T01:16:51;37.86;30.89;44.31;;
45651;Laerm;31365;48.858;8.530;2023-06-14T01:19:22;46.82;30.89;71.41;;
45651;Laerm;31365;48.858;8.530;2023-06-14T01:21:55;53.27;29.92;70.98;;
45651;Laerm;31365;48.858;8.530;2023-06-14T01:24:26;49.70;28.67;66.41;;
45651;Laerm;31365;48.858;8.530;2023-06-14T01:27:00;50.27;29.92;68.39;;
45651;Laerm;31365;48.858;8.530;2023-06-14T01:29:31;48.25;29.92;66.22;;
45651;Laerm;31365;48.858;8.530;2023-06-14T01:32:03;39.63;31.68;53.78;;
45651;Laerm;31365;48.858;8.530;2023-06-14T01:34:33;39.30;30.89;48.63;;
45651;Laerm;31365;48.858;8.530;2023-06-14T01:37:03;50.02;29.92;71.36;;
45651;Laerm;31365;48.858;8.530;2023-06-14T01:39:34;39.67;30.89;51.62;;
45651;Laerm;31365;48.858;8.530;2023-06-14T01:42:05;61.86;32.93;83.43;;
45651;Laerm;31365;48.858;8.530;2023-06-14T01:44:34;50.87;35.04;69.51;;
45651;Laerm;31365;48.858;8.530;2023-06-14T01:47:04;43.10;30.89;67.08;;
45651;Laerm;31365;48.858;8.530;2023-06-14T01:49:34;46.40;29.92;68.78;;
45651;Laerm;31365;48.858;8.530;2023-06-14T01:52:04;43.24;31.68;62.85;;
45651;Laerm;31365;48.858;8.530;2023-06-14T01:54:35;55.17;31.68;76.07;;
45651;Laerm;31365;48.858;8.530;2023-06-14T01:57:06;43.08;30.89;57.24;;
45651;Laerm;31365;48.858;8.530;2023-06-14T01:59:34;45.81;32.93;58.02;;
45651;Laerm;31365;48.858;8.530;2023-06-14T02:02:04;46.30;33.44;60.33;;
45651;Laerm;31365;48.858;8.530;2023-06-14T02:04:33;45.20;32.35;60.53;;
45651;Laerm;31365;48.858;8.530;2023-06-14T02:07:01;46.90;33.44;66.81;;
45651;Laerm;31365;48.858;8.530;2023-06-14T02:09:30;40.84;34.31;50.20;;
45651;Laerm;31365;48.858;8.530;2023-06-14T02:12:01;40.24;32.93;51.47;;
45651;Laerm;31365;48.858;8.530;2023-06-14T02:14:30;49.20;34.69;66.57;;
45651;Laerm;31365;48.858;8.530;2023-06-14T02:16:59;41.98;34.31;57.36;;
45651;Laerm;31365;48.858;8.530;2023-06-14T02:19:29;44.74;34.69;57.93;;
45651;Laerm;31365;48.858;8.530;2023-06-14T02:21:58;53.26;33.90;73.17;;
45651;Laerm;31365;48.858;8.530;2023-06-14T02:24:27;61.44;36.20;84.28;;
45651;Laerm;31365;48.858;8.530;2023-06-14T02:26:55;61.49;35.94;80.02;;
45651;Laerm;31365;48.858;8.530;2023-06-14T02:29:26;45.06;34.31;62.37;;
45651;Laerm;31365;48.858;8.530;2023-06-14T02:31:55;56.46;35.36;79.05;;
45651;Laerm;31365;48.858;8.530;2023-06-14T02:34:23;56.78;35.31;75.74;;
45651;Laerm;31365;48.858;8.530;2023-06-14T02:36:52;54.52;35.94;75.22;;
45651;Laerm;31365;48.858;8.530;2023-06-14T02:39:22;55.66;35.36;77.72;;
45651;Laerm;31365;48.858;8.530;2023-06-14T02:42:00;52.14;35.66;72.18;;
45651;Laerm;31365;48.858;8.530;2023-06-14T02:44:40;51.70;35.04;70.42;;
45651;Laerm;31365;48.858;8.530;2023-06-14T02:47:11;54.19;35.94;74.62;;
45651;Laerm;31365;48.858;8.530;2023-06-14T02:49:39;54.32;35.66;70.95;;
45651;Laerm;31365;48.858;8.530;2023-06-14T02:52:16;55.97;36.69;75.29;;
45651;Laerm;31365;48.858;8.530;2023-06-14T02:54:45;66.84;37.12;91.30;;
45651;Laerm;31365;48.858;8.530;2023-06-14T02:57:15;58.43;37.88;77.84;;
45651;Laerm;31365;48.858;8.530;2023-06-14T02:59:46;49.01;35.04;65.89;;
45651;Laerm;31365;48.858;8.530;2023-06-14T03:02:16;53.66;35.36;72.08;;
45651;Laerm;31365;48.858;8.530;2023-06-14T03:04:45;53.90;36.34;73.57;;
45651;Laerm;31365;48.858;8.530;2023-06-14T03:07:17;54.15;36.20;74.05;;
45651;Laerm;31365;48.858;8.530;2023-06-14T03:09:49;57.14;37.52;74.89;;
45651;Laerm;31365;48.858;8.530;2023-06-14T03:12:21;49.02;36.69;62.12;;
45651;Laerm;31365;48.858;8.530;2023-06-14T03:14:53;58.32;38.05;76.79;;
45651;Laerm;31365;48.858;8.530;2023-06-14T03:17:26;52.74;36.45;70.43;;
45651;Laerm;31365;48.858;8.530;2023-06-14T03:20:00;56.90;38.81;72.44;;
45651;Laerm;31365;48.858;8.530;2023-06-14T03:22:30;57.34;37.88;74.71;;
45651;Laerm;31365;48.858;8.530;2023-06-14T03:25:00;64.33;39.92;85.59;;
45651;Laerm;31365;48.858;8.530;2023-06-14T03:27:34;50.60;38.99;68.09;;
45651;Laerm;31365;48.858;8.530;2023-06-14T03:30:08;51.99;37.32;71.67;;
45651;Laerm;31365;48.858;8.530;2023-06-14T03:32:38;57.44;37.70;76.29;;
45651;Laerm;31365;48.858;8.530;2023-06-14T03:35:08;63.12;38.52;81.97;;
45651;Laerm;31365;48.858;8.530;2023-06-14T03:37:37;62.82;37.87;79.01;;
45651;Laerm;31365;48.858;8.530;2023-06-14T03:40:08;60.65;38.81;77.57;;
45651;Laerm;31365;48.858;8.530;2023-06-14T03:42:40;59.49;38.67;81.08;;
45651;Laerm;31365;48.858;8.530;2023-06-14T03:45:13;60.39;39.81;74.44;;
45651;Laerm;31365;48.858;8.530;2023-06-14T03:47:42;58.88;39.21;73.33;;
45651;Laerm;31365;48.858;8.530;2023-06-14T03:50:11;62.77;38.81;80.91;;
45651;Laerm;31365;48.858;8.530;2023-06-14T03:52:41;61.14;39.08;79.86;;
45651;Laerm;31365;48.858;8.530;2023-06-14T03:55:12;62.90;41.68;78.12;;
45651;Laerm;31365;48.858;8.530;2023-06-14T03:57:46;59.62;39.70;78.65;;
45651;Laerm;31365;48.858;8.530;2023-06-14T04:00:19;64.31;38.95;81.38;;
45651;Laerm;31365;48.858;8.530;2023-06-14T04:02:48;53.98;38.81;69.51;;
45651;Laerm;31365;48.858;8.530;2023-06-14T04:05:18;60.55;41.55;75.17;;
45651;Laerm;31365;48.858;8.530;2023-06-14T04:07:49;59.58;39.81;77.69;;
45651;Laerm;31365;48.858;8.530;2023-06-14T04:10:18;57.59;38.21;78.98;;
45651;Laerm;31365;48.858;8.530;2023-06-14T04:12:48;58.79;40.03;74.72;;
45651;Laerm;31365;48.858;8.530;2023-06-14T04:15:20;61.35;38.52;77.37;;
45651;Laerm;31365;48.858;8.530;2023-06-14T04:17:52;60.55;41.30;76.93;;
45651;Laerm;31365;48.858;8.530;2023-06-14T04:20:25;70.16;41.38;91.48;;
45651;Laerm;31365;48.858;8.530;2023-06-14T04:22:56;63.15;41.22;79.26;;
45651;Laerm;31365;48.858;8.530;2023-06-14T04:25:28;59.38;38.52;75.69;;
45651;Laerm;31365;48.858;8.530;2023-06-14T04:28:00;62.45;40.03;81.04;;
45651;Laerm;31365;48.858;8.530;2023-06-14T04:33:00;63.99;41.61;78.02;;
45651;Laerm;31365;48.858;8.530;2023-06-14T04:35:33;61.22;39.92;78.28;;
45651;Laerm;31365;48.858;8.530;2023-06-14T04:38:04;64.45;39.08;80.50;;
45651;Laerm;31365;48.858;8.530;2023-06-14T04:40:37;65.51;45.11;83.15;;
45651;Laerm;31365;48.858;8.530;2023-06-14T04:43:16;65.99;44.90;79.55;;
45651;Laerm;31365;48.858;8.530;2023-06-14T04:45:54;61.90;39.46;76.93;;
45651;Laerm;31365;48.858;8.530;2023-06-14T04:48:24;63.76;41.75;76.81;;
45651;Laerm;31365;48.858;8.530;2023-06-14T04:50:54;66.02;42.29;83.63;;
45651;Laerm;31365;48.858;8.530;2023-06-14T04:53:23;64.11;43.63;77.70;;
45651;Laerm;31365;48.858;8.530;2023-06-14T04:55:57;63.83;42.16;76.60;;
45651;Laerm;31365;48.858;8.530;2023-06-14T04:58:26;64.19;42.16;80.72;;
45651;Laerm;31365;48.858;8.530;2023-06-14T05:00:56;65.15;44.35;83.23;;
45651;Laerm;31365;48.858;8.530;2023-06-14T05:03:26;67.19;44.31;85.17;;
45651;Laerm;31365;48.858;8.530;2023-06-14T05:05:58;63.74;40.98;79.05;;
45651;Laerm;31365;48.858;8.530;2023-06-14T05:08:27;60.84;42.53;75.80;;
45651;Laerm;31365;48.858;8.530;2023-06-14T05:10:58;64.65;42.65;78.30;;
45651;Laerm;31365;48.858;8.530;2023-06-14T05:13:27;64.06;43.09;77.90;;
45651;Laerm;31365;48.858;8.530;2023-06-14T05:15:57;62.17;41.82;77.51;;
45651;Laerm;31365;48.858;8.530;2023-06-14T05:18:26;63.60;41.94;77.90;;
45651;Laerm;31365;48.858;8.530;2023-06-14T05:20:55;65.61;42.47;80.87;;
45651;Laerm;31365;48.858;8.530;2023-06-14T05:23:24;68.42;45.23;84.79;;
45651;Laerm;31365;48.858;8.530;2023-06-14T05:25:53;64.37;42.16;77.47;;
45651;Laerm;31365;48.858;8.530;2023-06-14T05:28:22;65.08;42.65;80.29;;
45651;Laerm;31365;48.858;8.530;2023-06-14T05:30:51;66.14;45.42;80.62;;
45651;Laerm;31365;48.858;8.530;2023-06-14T05:33:22;61.49;41.68;75.60;;
45651;Laerm;31365;48.858;8.530;2023-06-14T05:35:51;65.84;41.46;79.40;;
45651;Laerm;31365;48.858;8.530;2023-06-14T05:38:19;64.30;42.03;77.88;;
45651;Laerm;31365;48.858;8.530;2023-06-14T05:40:48;62.90;40.98;76.89;;
45651;Laerm;31365;48.858;8.530;2023-06-14T05:43:17;63.52;41.75;79.48;;
45651;Laerm;31365;48.858;8.530;2023-06-14T05:45:45;64.20;43.58;78.40;;
45651;Laerm;31365;48.858;8.530;2023-06-14T05:48:14;63.95;42.29;78.27;;
45651;Laerm;31365;48.858;8.530;2023-06-14T05:50:45;64.50;41.22;77.54;;
45651;Laerm;31365;48.858;8.530;2023-06-14T05:53:15;65.16;41.14;77.26;;
45651;Laerm;31365;48.858;8.530;2023-06-14T05:55:43;65.09;42.76;79.00;;
45651;Laerm;31365;48.858;8.530;2023-06-14T05:58:12;64.24;41.61;76.52;;
45651;Laerm;31365;48.858;8.530;2023-06-14T06:00:41;65.32;41.68;81.58;;
45651;Laerm;31365;48.858;8.530;2023-06-14T06:03:10;64.26;42.29;77.23;;
45651;Laerm;31365;48.858;8.530;2023-06-14T06:05:40;64.77;40.03;80.96;;
45651;Laerm;31365;48.858;8.530;2023-06-14T06:08:13;61.22;41.30;76.31;;
45651;Laerm;31365;48.858;8.530;2023-06-14T06:10:43;63.85;42.76;79.49;;
45651;Laerm;31365;48.858;8.530;2023-06-14T06:13:13;65.22;44.23;80.22;;
45651;Laerm;31365;48.858;8.530;2023-06-14T06:15:42;57.69;42.82;70.78;;
45651;Laerm;31365;48.858;8.530;2023-06-14T06:18:12;63.40;45.75;79.48;;
45651;Laerm;31365;48.858;8.530;2023-06-14T06:20:41;63.35;46.62;77.36;;
45651;Laerm;31365;48.858;8.530;2023-06-14T06:23:11;63.72;45.80;77.61;;
45651;Laerm;31365;48.858;8.530;2023-06-14T06:25:42;66.48;46.13;81.00;;
45651;Laerm;31365;48.858;8.530;2023-06-14T06:28:10;64.09;45.27;78.21;;
45651;Laerm;31365;48.858;8.530;2023-06-14T06:30:39;63.90;48.89;84.02;;
45651;Laerm;31365;48.858;8.530;2023-06-14T06:33:07;62.23;46.18;76.73;;
45651;Laerm;31365;48.858;8.530;2023-06-14T06:35:37;63.61;45.01;77.11;;
45651;Laerm;31365;48.858;8.530;2023-06-14T06:38:05;63.31;44.87;83.21;;
45651;Laerm;31365;48.858;8.530;2023-06-14T06:40:34;62.74;42.09;76.31;;
45651;Laerm;31365;48.858;8.530;2023-06-14T06:43:04;63.54;44.27;83.90;;
45651;Laerm;31365;48.858;8.530;2023-06-14T06:45:40;60.14;40.71;71.72;;
45651;Laerm;31365;48.858;8.530;2023-06-14T06:48:09;61.64;43.86;76.65;;
45651;Laerm;31365;48.858;8.530;2023-06-14T06:50:39;63.21;43.81;78.06;;
45651;Laerm;31365;48.858;8.530;2023-06-14T06:53:07;63.22;41.89;75.00;;
45651;Laerm;31365;48.858;8.530;2023-06-14T06:55:36;61.22;41.96;77.89;;
45651;Laerm;31365;48.858;8.530;2023-06-14T06:58:07;61.10;40.71;73.96;;
45651;Laerm;31365;48.858;8.530;2023-06-14T07:00:36;58.85;42.29;74.92;;
45651;Laerm;31365;48.858;8.530;2023-06-14T07:03:05;61.40;43.04;77.89;;
45651;Laerm;31365;48.858;8.530;2023-06-14T07:05:34;61.53;39.68;78.72;;
45651;Laerm;31365;48.858;8.530;2023-06-14T07:08:03;59.15;40.98;73.03;;
45651;Laerm;31365;48.858;8.530;2023-06-14T07:10:32;62.36;42.09;82.76;;
45651;Laerm;31365;48.858;8.530;2023-06-14T07:13:00;63.46;40.80;84.65;;
45651;Laerm;31365;48.858;8.530;2023-06-14T07:15:30;60.24;42.41;71.96;;
45651;Laerm;31365;48.858;8.530;2023-06-14T07:17:59;59.71;40.62;74.08;;
45651;Laerm;31365;48.858;8.530;2023-06-14T07:20:28;55.29;40.33;70.70;;
45651;Laerm;31365;48.858;8.530;2023-06-14T07:22:58;58.96;40.71;72.85;;
45651;Laerm;31365;48.858;8.530;2023-06-14T07:25:27;57.81;39.92;73.59;;
45651;Laerm;31365;48.858;8.530;2023-06-14T07:27:55;58.23;41.53;72.34;;
45651;Laerm;31365;48.858;8.530;2023-06-14T07:30:24;60.63;39.21;79.66;;
45651;Laerm;31365;48.858;8.530;2023-06-14T07:32:55;62.64;43.14;79.55;;
45651;Laerm;31365;48.858;8.530;2023-06-14T07:35:25;62.00;38.67;75.69;;
45651;Laerm;31365;48.858;8.530;2023-06-14T07:37:54;60.87;41.55;77.81;;
45651;Laerm;31365;48.858;8.530;2023-06-14T07:40:23;62.63;42.41;80.40;;
45651;Laerm;31365;48.858;8.530;2023-06-14T07:42:52;62.22;41.53;75.27;;
45651;Laerm;31365;48.858;8.530;2023-06-14T07:45:22;63.23;42.03;76.10;;
45651;Laerm;31365;48.858;8.530;2023-06-14T07:47:51;63.91;41.61;81.14;;
45651;Laerm;31365;48.858;8.530;2023-06-14T07:50:22;60.73;41.75;74.45;;
45651;Laerm;31365;48.858;8.530;2023-06-14T07:52:51;65.28;41.22;85.52;;
45651;Laerm;31365;48.858;8.530;2023-06-14T07:55:20;62.08;42.03;77.89;;
45651;Laerm;31365;48.858;8.530;2023-06-14T07:57:49;61.52;39.68;78.19;;
45651;Laerm;31365;48.858;8.530;2023-06-14T08:00:19;61.53;40.53;80.47;;
45651;Laerm;31365;48.858;8.530;2023-06-14T08:02:48;60.68;39.46;74.83;;
45651;Laerm;31365;48.858;8.530;2023-06-14T08:05:27;61.17;40.33;75.45;;
45651;Laerm;31365;48.858;8.530;2023-06-14T08:07:56;60.56;39.70;74.24;;
45651;Laerm;31365;48.858;8.530;2023-06-14T08:10:25;65.52;38.95;85.23;;
45651;Laerm;31365;48.858;8.530;2023-06-14T08:12:53;61.67;39.46;75.11;;
45651;Laerm;31365;48.858;8.530;2023-06-14T08:15:21;64.84;41.89;84.19;;
45651;Laerm;31365;48.858;8.530;2023-06-14T08:17:50;60.40;41.06;75.26;;
45651;Laerm;31365;48.858;8.530;2023-06-14T08:20:19;62.09;41.06;79.60;;
45651;Laerm;31365;48.858;8.530;2023-06-14T08:22:49;61.05;41.14;73.92;;
45651;Laerm;31365;48.858;8.530;2023-06-14T08:25:22;61.58;40.23;77.01;;
45651;Laerm;31365;48.858;8.530;2023-06-14T08:27:51;64.02;41.68;79.38;;
45651;Laerm;31365;48.858;8.530;2023-06-14T08:30:20;63.12;42.71;76.39;;
45651;Laerm;31365;48.858;8.530;2023-06-14T08:32:49;59.94;39.92;72.21;;
45651;Laerm;31365;48.858;8.530;2023-06-14T08:35:37;62.65;40.63;79.29;;
45651;Laerm;31365;48.858;8.530;2023-06-14T08:38:10;60.30;40.13;75.08;;
45651;Laerm;31365;48.858;8.530;2023-06-14T08:40:41;61.87;38.05;78.39;;
45651;Laerm;31365;48.858;8.530;2023-06-14T08:43:10;64.65;39.21;84.69;;
45651;Laerm;31365;48.858;8.530;2023-06-14T08:45:39;62.15;45.36;77.74;;
45651;Laerm;31365;48.858;8.530;2023-06-14T08:48:08;59.79;39.08;76.56;;
45651;Laerm;31365;48.858;8.530;2023-06-14T08:50:41;64.67;41.06;81.84;;
45651;Laerm;31365;48.858;8.530;2023-06-14T08:53:14;71.98;48.03;87.09;;
45651;Laerm;31365;48.858;8.530;2023-06-14T08:55:48;63.68;42.09;80.32;;
45651;Laerm;31365;48.858;8.530;2023-06-14T08:58:18;63.56;38.67;81.19;;
45651;Laerm;31365;48.858;8.530;2023-06-14T09:00:46;62.15;41.46;75.90;;
45651;Laerm;31365;48.858;8.530;2023-06-14T09:03:16;63.82;41.38;83.35;;
45651;Laerm;31365;48.858;8.530;2023-06-14T09:05:48;64.14;40.96;79.96;;
45651;Laerm;31365;48.858;8.530;2023-06-14T09:08:20;61.01;40.89;73.30;;
45651;Laerm;31365;48.858;8.530;2023-06-14T09:10:49;64.85;41.61;81.20;;
45651;Laerm;31365;48.858;8.530;2023-06-14T09:13:18;62.22;40.98;76.65;;
45651;Laerm;31365;48.858;8.530;2023-06-14T09:15:47;64.05;41.38;86.28;;
45651;Laerm;31365;48.858;8.530;2023-06-14T09:18:16;59.22;40.62;74.62;;
45651;Laerm;31365;48.858;8.530;2023-06-14T09:20:47;61.92;42.16;83.09;;
45651;Laerm;31365;48.858;8.530;2023-06-14T09:23:21;62.60;44.35;79.23;;
45651;Laerm;31365;48.858;8.530;2023-06-14T09:25:50;58.91;40.98;74.06;;
45651;Laerm;31365;48.858;8.530;2023-06-14T09:28:19;60.99;39.81;74.89;;
45651;Laerm;31365;48.858;8.530;2023-06-14T09:30:50;61.41;42.76;81.83;;
45651;Laerm;31365;48.858;8.530;2023-06-14T09:33:19;61.48;41.75;76.30;;
45651;Laerm;31365;48.858;8.530;2023-06-14T09:35:51;58.19;42.41;73.66;;
45651;Laerm;31365;48.858;8.530;2023-06-14T09:38:21;61.91;41.61;78.80;;
45651;Laerm;31365;48.858;8.530;2023-06-14T09:40:50;65.36;42.98;82.61;;
45651;Laerm;31365;48.858;8.530;2023-06-14T09:43:20;61.48;39.81;77.55;;
45651;Laerm;31365;48.858;8.530;2023-06-14T09:45:51;65.43;42.09;81.93;;
45651;Laerm;31365;48.858;8.530;2023-06-14T09:48:21;64.71;39.46;86.60;;
45651;Laerm;31365;48.858;8.530;2023-06-14T09:50:50;61.45;37.70;77.56;;
45651;Laerm;31365;48.858;8.530;2023-06-14T09:53:22;63.12;41.96;80.07;;
45651;Laerm;31365;48.858;8.530;2023-06-14T09:55:57;62.55;39.81;78.47;;
45651;Laerm;31365;48.858;8.530;2023-06-14T09:58:29;59.38;40.03;74.43;;
45651;Laerm;31365;48.858;8.530;2023-06-14T10:01:00;60.67;41.14;74.18;;
45651;Laerm;31365;48.858;8.530;2023-06-14T10:03:29;62.97;40.13;77.94;;
45651;Laerm;31365;48.858;8.530;2023-06-14T10:06:19;63.19;41.22;76.17;;
45651;Laerm;31365;48.858;8.530;2023-06-14T10:08:57;61.59;38.95;76.55;;
45651;Laerm;31365;48.858;8.530;2023-06-14T10:11:27;60.18;38.67;75.28;;
45651;Laerm;31365;48.858;8.530;2023-06-14T10:13:58;63.13;42.16;77.87;;
45651;Laerm;31365;48.858;8.530;2023-06-14T10:16:32;60.66;42.65;77.20;;
45651;Laerm;31365;48.858;8.530;2023-06-14T10:19:16;62.74;42.93;79.45;;
45651;Laerm;31365;48.858;8.530;2023-06-14T10:21:53;61.37;43.09;76.32;;
45651;Laerm;31365;48.858;8.530;2023-06-14T10:24:33;60.38;42.82;77.47;;
45651;Laerm;31365;48.858;8.530;2023-06-14T10:27:08;60.40;42.53;77.32;;
45651;Laerm;31365;48.858;8.530;2023-06-14T10:30:03;60.12;42.29;75.12;;
45651;Laerm;31365;48.858;8.530;2023-06-14T10:32:32;61.10;42.22;77.33;;
45651;Laerm;31365;48.858;8.530;2023-06-14T10:35:05;61.17;40.98;75.18;;
45651;Laerm;31365;48.858;8.530;2023-06-14T10:37:34;60.56;40.89;74.80;;
45651;Laerm;31365;48.858;8.530;2023-06-14T10:40:08;62.83;41.38;76.28;;
45651;Laerm;31365;48.858;8.530;2023-06-14T10:42:37;59.77;42.22;73.87;;
45651;Laerm;31365;48.858;8.530;2023-06-14T10:45:12;65.68;42.88;83.80;;
45651;Laerm;31365;48.858;8.530;2023-06-14T10:50:12;59.34;43.33;80.86;;
45651;Laerm;31365;48.858;8.530;2023-06-14T10:52:43;64.07;43.81;82.81;;
45651;Laerm;31365;48.858;8.530;2023-06-14T10:55:15;60.92;42.65;74.48;;
45651;Laerm;31365;48.858;8.530;2023-06-14T10:57:47;60.91;42.22;77.32;;
45651;Laerm;31365;48.858;8.530;2023-06-14T11:00:21;55.90;41.38;70.44;;
45651;Laerm;31365;48.858;8.530;2023-06-14T11:03:36;69.04;41.68;88.85;;
45651;Laerm;31365;48.858;8.530;2023-06-14T11:06:15;63.49;41.30;83.68;;
45651;Laerm;31365;48.858;8.530;2023-06-14T11:12:10;64.68;42.64;82.27;;
45651;Laerm;31365;48.858;8.530;2023-06-14T11:14:39;66.37;42.22;86.01;;
45651;Laerm;31365;48.858;8.530;2023-06-14T11:17:09;65.09;42.76;82.56;;
45651;Laerm;31365;48.858;8.530;2023-06-14T11:19:42;62.31;42.29;78.22;;
45651;Laerm;31365;48.858;8.530;2023-06-14T11:22:12;61.21;37.70;77.85;;
45651;Laerm;31365;48.858;8.530;2023-06-14T11:24:43;68.22;43.29;85.13;;
45651;Laerm;31365;48.858;8.530;2023-06-14T11:27:14;65.23;40.23;81.94;;
45651;Laerm;31365;48.858;8.530;2023-06-14T11:29:48;58.55;37.88;76.50;;
45651;Laerm;31365;48.858;8.530;2023-06-14T11:32:17;62.05;41.14;73.34;;
45651;Laerm;31365;48.858;8.530;2023-06-14T11:34:47;62.19;39.46;84.41;;
45651;Laerm;31365;48.858;8.530;2023-06-14T11:37:19;63.40;39.46;82.03;;
45651;Laerm;31365;48.858;8.530;2023-06-14T11:39:49;61.22;38.05;77.49;;
45651;Laerm;31365;48.858;8.530;2023-06-14T11:42:19;64.37;40.13;83.75;;
45651;Laerm;31365;48.858;8.530;2023-06-14T11:44:48;66.77;43.09;83.49;;
45651;Laerm;31365;48.858;8.530;2023-06-14T11:47:23;58.49;40.53;71.16;;
45651;Laerm;31365;48.858;8.530;2023-06-14T11:49:52;60.29;41.96;76.05;;
45651;Laerm;31365;48.858;8.530;2023-06-14T11:52:21;60.80;39.92;73.74;;
45651;Laerm;31365;48.858;8.530;2023-06-14T11:54:50;61.44;41.14;81.04;;
45651;Laerm;31365;48.858;8.530;2023-06-14T11:57:23;60.72;39.58;73.55;;
45651;Laerm;31365;48.858;8.530;2023-06-14T11:59:52;64.08;39.21;82.82;;
45651;Laerm;31365;48.858;8.530;2023-06-14T12:02:24;64.74;38.05;85.89;;
45651;Laerm;31365;48.858;8.530;2023-06-14T12:05:05;60.16;37.32;75.23;;
45651;Laerm;31365;48.858;8.530;2023-06-14T12:07:35;60.62;40.89;74.06;;
45651;Laerm;31365;48.858;8.530;2023-06-14T12:10:07;60.63;41.19;81.65;;
45651;Laerm;31365;48.858;8.530;2023-06-14T12:12:39;62.30;40.62;78.85;;
45651;Laerm;31365;48.858;8.530;2023-06-14T12:15:10;60.69;38.37;77.79;;
45651;Laerm;31365;48.858;8.530;2023-06-14T12:17:42;60.04;39.21;75.83;;
45651;Laerm;31365;48.858;8.530;2023-06-14T12:20:13;64.17;42.35;83.01;;
45651;Laerm;31365;48.858;8.530;2023-06-14T12:22:53;60.70;41.14;79.04;;
45651;Laerm;31365;48.858;8.530;2023-06-14T12:25:26;59.59;41.53;73.33;;
45651;Laerm;31365;48.858;8.530;2023-06-14T12:27:58;60.11;41.14;76.29;;
45651;Laerm;31365;48.858;8.530;2023-06-14T12:30:27;60.99;38.95;78.78;;
45651;Laerm;31365;48.858;8.530;2023-06-14T12:32:55;59.64;41.75;74.02;;
45651;Laerm;31365;48.858;8.530;2023-06-14T12:35:25;57.72;36.69;74.59;;
45651;Laerm;31365;48.858;8.530;2023-06-14T12:37:54;59.16;35.66;74.76;;
45651;Laerm;31365;48.858;8.530;2023-06-14T12:40:23;57.59;36.91;70.95;;
45651;Laerm;31365;48.858;8.530;2023-06-14T12:42:52;60.65;40.89;76.57;;
45651;Laerm;31365;48.858;8.530;2023-06-14T12:45:22;61.92;26.91;78.44;;
45651;Laerm;31365;48.858;8.530;2023-06-14T12:47:51;59.96;35.66;76.02;;
45651;Laerm;31365;48.858;8.530;2023-06-14T12:50:20;59.83;32.93;73.38;;
45651;Laerm;31365;48.858;8.530;2023-06-14T12:52:53;58.48;30.89;70.48;;
45651;Laerm;31365;48.858;8.530;2023-06-14T12:55:22;62.76;40.53;82.42;;
45651;Laerm;31365;48.858;8.530;2023-06-14T12:57:50;62.40;28.67;82.35;;
45651;Laerm;31365;48.858;8.530;2023-06-14T14:26:47;62.05;42.82;77.99;;
45651;Laerm;31365;48.858;8.530;2023-06-14T14:29:16;63.96;42.65;79.21;;
45651;Laerm;31365;48.858;8.530;2023-06-14T14:31:46;60.36;39.08;72.44;;
45651;Laerm;31365;48.858;8.530;2023-06-14T14:34:15;63.25;42.22;81.32;;
45651;Laerm;31365;48.858;8.530;2023-06-14T14:36:47;60.79;29.92;76.47;;
45651;Laerm;31365;48.858;8.530;2023-06-14T14:39:16;61.66;37.70;77.91;;
45651;Laerm;31365;48.858;8.530;2023-06-14T14:41:44;60.87;41.06;77.43;;
45651;Laerm;31365;48.858;8.530;2023-06-14T14:44:15;59.29;41.82;72.62;;
45651;Laerm;31365;48.858;8.530;2023-06-14T14:46:46;58.57;36.91;73.05;;
45651;Laerm;31365;48.858;8.530;2023-06-14T14:49:14;61.34;38.67;77.09;;
45651;Laerm;31365;48.858;8.530;2023-06-14T14:51:43;63.47;41.06;79.58;;
45651;Laerm;31365;48.858;8.530;2023-06-14T14:54:11;63.08;38.37;85.18;;
45651;Laerm;31365;48.858;8.530;2023-06-14T14:56:40;60.99;40.80;79.87;;
45651;Laerm;31365;48.858;8.530;2023-06-14T14:59:09;64.83;42.47;83.15;;
45651;Laerm;31365;48.858;8.530;2023-06-14T15:01:40;66.16;44.03;86.40;;
45651;Laerm;31365;48.858;8.530;2023-06-14T15:04:09;60.01;41.46;73.12;;
45651;Laerm;31365;48.858;8.530;2023-06-14T15:06:37;60.79;40.71;75.99;;
45651;Laerm;31365;48.858;8.530;2023-06-14T15:09:07;60.51;42.29;74.99;;
45651;Laerm;31365;48.858;8.530;2023-06-14T15:11:35;63.02;40.80;77.01;;
45651;Laerm;31365;48.858;8.530;2023-06-14T15:14:03;62.10;40.98;74.94;;
45651;Laerm;31365;48.858;8.530;2023-06-14T15:16:32;63.88;42.19;82.11;;
45651;Laerm;31365;48.858;8.530;2023-06-14T15:19:02;63.39;41.61;81.14;;
45651;Laerm;31365;48.858;8.530;2023-06-14T15:21:31;63.13;40.80;78.70;;
45651;Laerm;31365;48.858;8.530;2023-06-14T15:24:00;64.00;42.09;79.05;;
45651;Laerm;31365;48.858;8.530;2023-06-14T15:26:28;62.66;42.53;77.42;;
45651;Laerm;31365;48.858;8.530;2023-06-14T15:28:56;65.77;43.44;81.46;;
45651;Laerm;31365;48.858;8.530;2023-06-14T15:31:25;63.31;43.14;76.71;;
45651;Laerm;31365;48.858;8.530;2023-06-14T15:33:55;61.90;41.06;79.48;;
45651;Laerm;31365;48.858;8.530;2023-06-14T15:36:26;62.50;43.09;76.93;;
45651;Laerm;31365;48.858;8.530;2023-06-14T15:38:54;63.44;42.03;78.31;;